Time;durP1;ratioP1;P1;durP2;ratioP2;P2;SDS_P1;SDS_P2;PMS_P1;PMS_P2;Temp;Humidity;BMP_temperature;BMP_pressure;BME280_temperature;BME280_humidity;BME280_pressure;Samples;Min_cycle;Max_cycle;Signal;HPM_P1;HPM_P2
2022/04/04 00:01:18;;;;;;;10.98;9.20;;;2.20;1.00;;;;;;5031895;28;20415;-61
2022/04/04 00:03:46;;;;;;;12.30;8.90;;;2.20;1.00;;;;;;5031558;28;20465;-61
2022/04/04 00:06:13;;;;;;;12.52;9.07;;;2.20;1.00;;;;;;5031169;28;20473;-61
2022/04/04 00:08:40;;;;;;;11.50;9.50;;;2.30;1.00;;;;;;5031772;28;20415;-61
2022/04/04 00:11:07;;;;;;;12.27;9.45;;;2.30;1.00;;;;;;5031664;28;20431;-61
2022/04/04 00:13:34;;;;;;;13.30;9.75;;;2.20;1.00;;;;;;5031606;28;20415;-60
2022/04/04 00:16:00;;;;;;;12.25;10.10;;;2.20;1.00;;;;;;5031425;28;20428;-61
2022/04/04 00:18:27;;;;;;;12.98;9.98;;;2.20;1.00;;;;;;5031480;28;20423;-58
2022/04/04 00:20:55;;;;;;;12.83;9.70;;;2.20;1.00;;;;;;5030354;28;20510;-58
2022/04/04 00:23:21;;;;;;;12.82;10.18;;;2.20;1.00;;;;;;5031549;28;20419;-59
2022/04/04 00:25:49;;;;;;;10.88;9.48;;;2.10;1.00;;;;;;5030998;28;20415;-59
2022/04/04 00:28:16;;;;;;;12.50;10.15;;;2.10;99.90;;;;;;5031311;28;20419;-59
2022/04/04 00:30:43;;;;;;;12.38;10.65;;;2.10;99.90;;;;;;5030990;28;20426;-58
2022/04/04 00:33:10;;;;;;;13.13;10.30;;;1.90;99.90;;;;;;5031191;28;20774;-58
2022/04/04 00:35:37;;;;;;;12.55;10.90;;;1.90;1.00;;;;;;5030785;28;20430;-60
2022/04/04 00:38:08;;;;;;;16.45;10.95;;;1.90;18.70;;;;;;5031001;28;20828;-61
2022/04/04 00:40:35;;;;;;;14.43;10.82;;;1.80;99.90;;;;;;5031477;28;20411;-60
2022/04/04 00:43:02;;;;;;;16.37;11.67;;;1.80;1.00;;;;;;5030915;28;20415;-60
2022/04/04 00:45:28;;;;;;;13.70;10.63;;;1.90;1.00;;;;;;5031090;28;20470;-60
2022/04/04 00:47:55;;;;;;;14.38;11.32;;;1.60;13.70;;;;;;5030356;28;20423;-59
2022/04/04 00:50:22;;;;;;;12.90;10.82;;;1.70;1.00;;;;;;5030743;28;20911;-61
2022/04/04 00:52:49;;;;;;;13.93;11.00;;;1.60;99.90;;;;;;5030946;28;20429;-61
2022/04/04 00:55:18;;;;;;;14.63;10.95;;;1.60;80.20;;;;;;5031112;28;20473;-61
2022/04/04 00:57:45;;;;;;;13.15;10.80;;;1.50;1.00;;;;;;5030170;28;20969;-61
2022/04/04 01:00:13;;;;;;;13.20;10.50;;;1.60;1.00;;;;;;5030905;28;20415;-61
2022/04/04 01:02:40;;;;;;;15.63;11.40;;;1.70;99.90;;;;;;5030786;28;20422;-59
2022/04/04 01:05:09;;;;;;;11.82;10.20;;;1.60;99.90;;;;;;5030835;28;20419;-61
2022/04/04 01:07:38;;;;;;;13.30;11.00;;;1.60;1.00;;;;;;5030337;28;20970;-61
2022/04/04 01:10:06;;;;;;;14.65;10.25;;;1.70;99.90;;;;;;5030844;28;20438;-61
2022/04/04 01:12:34;;;;;;;13.65;10.77;;;1.80;1.00;;;;;;5031121;28;20446;-61
2022/04/04 01:15:01;;;;;;;13.93;11.40;;;1.70;99.90;;;;;;5030297;28;20461;-60
2022/04/04 01:17:29;;;;;;;15.18;11.75;;;1.70;1.00;;;;;;5030714;28;20465;-61
2022/04/04 01:19:56;;;;;;;14.10;12.00;;;1.80;1.00;;;;;;5030683;28;20419;-61
2022/04/04 01:22:24;;;;;;;14.23;11.48;;;1.80;1.00;;;;;;5030587;28;20911;-61
2022/04/04 01:24:52;;;;;;;15.27;12.15;;;1.80;1.00;;;;;;5030657;28;20462;-61
2022/04/04 01:27:19;;;;;;;13.80;11.20;;;1.90;1.00;;;;;;5030070;28;20465;-59
2022/04/04 01:29:46;;;;;;;14.15;10.90;;;1.80;99.90;;;;;;5030742;28;20419;-61
2022/04/04 01:32:12;;;;;;;13.45;11.27;;;1.90;99.90;;;;;;5033158;28;20465;-56
2022/04/04 01:34:39;;;;;;;11.90;10.50;;;1.90;99.90;;;;;;5034621;28;20808;-60
2022/04/04 01:37:06;;;;;;;14.65;11.50;;;1.90;99.90;;;;;;5034545;28;20414;-61
2022/04/04 01:39:33;;;;;;;13.43;10.75;;;1.80;99.90;;;;;;5035172;28;20415;-61
2022/04/04 01:42:01;;;;;;;12.97;10.63;;;1.80;80.80;;;;;;5034213;28;20844;-61
2022/04/04 01:44:28;;;;;;;12.77;10.77;;;1.70;99.90;;;;;;5034437;28;20864;-61
2022/04/04 01:46:55;;;;;;;17.38;10.98;;;1.70;11.40;;;;;;5034227;28;20816;-60
2022/04/04 01:49:21;;;;;;;12.95;9.88;;;1.70;99.90;;;;;;5034426;28;20449;-61
2022/04/04 01:51:48;;;;;;;12.48;9.75;;;1.80;99.90;;;;;;5034475;28;20434;-61
2022/04/04 01:54:15;;;;;;;12.13;9.93;;;1.80;2.50;;;;;;5033969;28;20891;-61
2022/04/04 01:56:43;;;;;;;13.35;9.77;;;1.80;99.90;;;;;;5033872;28;20426;-61
2022/04/04 01:59:11;;;;;;;12.93;10.10;;;1.70;1.00;;;;;;5034062;28;20423;-61
2022/04/04 02:01:38;;;;;;;14.68;9.65;;;1.70;99.90;;;;;;5034174;28;20414;-61
2022/04/04 02:04:04;;;;;;;12.23;9.20;;;1.80;1.00;;;;;;5034264;28;20418;-59
2022/04/04 02:06:33;;;;;;;13.60;9.27;;;1.80;99.90;;;;;;5033423;28;20897;-59
2022/04/04 02:09:00;;;;;;;11.88;9.30;;;1.80;99.90;;;;;;5033909;28;20901;-59
2022/04/04 02:11:26;;;;;;;12.68;9.40;;;1.80;99.90;;;;;;5033504;28;20909;-60
2022/04/04 02:13:54;;;;;;;13.32;10.10;;;1.60;1.00;;;;;;5033717;28;20893;-58
2022/04/04 02:16:22;;;;;;;12.85;9.50;;;1.50;1.00;;;;;;5033148;28;20927;-59
2022/04/04 02:18:49;;;;;;;12.57;9.73;;;1.50;1.00;;;;;;5033992;28;20410;-60
2022/04/04 02:21:16;;;;;;;11.55;9.48;;;1.60;99.90;;;;;;5033834;28;20473;-60
2022/04/04 02:23:42;;;;;;;13.87;9.57;;;1.50;75.40;;;;;;5033655;28;20917;-60
2022/04/04 02:26:09;;;;;;;12.35;9.73;;;1.50;1.00;;;;;;5033272;28;20916;-59
2022/04/04 02:28:36;;;;;;;11.63;8.87;;;1.50;29.00;;;;;;5033257;28;20422;-57
2022/04/04 02:31:03;;;;;;;13.75;8.93;;;1.50;1.00;;;;;;5033407;28;20438;-60
2022/04/04 02:33:31;;;;;;;12.38;8.25;;;1.60;1.00;;;;;;5033156;28;20485;-59
2022/04/04 02:35:58;;;;;;;11.10;8.15;;;1.70;1.00;;;;;;5033224;28;20411;-57
2022/04/04 02:38:26;;;;;;;12.23;8.57;;;1.70;1.00;;;;;;5033303;28;20419;-58
2022/04/04 02:40:53;;;;;;;11.43;9.00;;;1.70;99.90;;;;;;5033401;28;20465;-60
2022/04/04 02:43:21;;;;;;;12.43;8.93;;;1.70;99.90;;;;;;5032458;28;20457;-60
2022/04/04 02:45:47;;;;;;;11.18;8.73;;;1.80;99.90;;;;;;5033363;28;20442;-59
2022/04/04 02:48:15;;;;;;;12.70;8.30;;;1.80;1.00;;;;;;5032899;28;20418;-58
2022/04/04 02:50:43;;;;;;;11.77;9.00;;;1.90;71.70;;;;;;5032873;28;20430;-60
2022/04/04 02:53:10;;;;;;;11.52;8.35;;;1.90;99.90;;;;;;5033246;28;20422;-58
2022/04/04 02:58:22;;;;;;;12.93;8.57;;;1.90;99.90;;;;;;5032909;28;20564;-60
2022/04/04 03:00:48;;;;;;;12.38;9.18;;;2.00;99.90;;;;;;5033052;28;20422;-60
2022/04/04 03:03:15;;;;;;;13.50;9.10;;;2.00;6.60;;;;;;5032803;28;20766;-59
2022/04/04 03:05:44;;;;;;;15.48;9.48;;;2.10;1.00;;;;;;5032905;28;20425;-60
2022/04/04 03:08:10;;;;;;;13.40;9.45;;;2.10;99.90;;;;;;5032633;28;20415;-60
2022/04/04 03:10:38;;;;;;;14.20;9.45;;;2.10;99.90;;;;;;5032749;28;20426;-60
2022/04/04 03:13:05;;;;;;;12.88;9.60;;;2.10;16.90;;;;;;5032494;28;20510;-59
2022/04/04 03:15:34;;;;;;;13.32;9.30;;;2.20;1.00;;;;;;5032751;28;20494;-61
2022/04/04 03:18:02;;;;;;;12.18;9.07;;;2.30;99.90;;;;;;5032371;28;20501;-60
2022/04/04 03:20:30;;;;;;;13.93;9.20;;;2.30;1.00;;;;;;5032716;28;20419;-61
2022/04/04 03:23:00;;;;;;;11.93;9.60;;;2.30;1.00;;;;;;5032737;28;20440;-61
2022/04/04 03:25:27;;;;;;;14.45;9.57;;;2.30;1.00;;;;;;5032882;28;20506;-59
2022/04/04 03:27:55;;;;;;;13.48;9.30;;;2.40;1.00;;;;;;5032068;28;20415;-60
2022/04/04 03:30:23;;;;;;;14.52;9.80;;;2.40;1.00;;;;;;5032329;28;20419;-61
2022/04/04 03:32:51;;;;;;;14.55;10.32;;;2.30;99.90;;;;;;5032591;28;20415;-61
2022/04/04 03:35:19;;;;;;;13.93;9.25;;;2.40;99.90;;;;;;5032245;28;20784;-61
2022/04/04 03:37:48;;;;;;;13.15;8.80;;;2.40;99.90;;;;;;5032275;28;20465;-60
2022/04/04 03:40:19;;;;;;;13.65;9.38;;;2.50;67.90;;;;;;5032332;28;20418;-61
2022/04/04 03:42:47;;;;;;;14.68;9.77;;;2.40;10.90;;;;;;5031947;28;20828;-61
2022/04/04 03:45:14;;;;;;;11.35;8.23;;;2.30;99.90;;;;;;5032079;28;20476;-61
2022/04/04 03:47:43;;;;;;;12.13;8.38;;;2.40;91.20;;;;;;5031603;28;20478;-61
2022/04/04 03:50:13;;;;;;;11.98;8.88;;;2.50;1.00;;;;;;5032063;28;20407;-61
2022/04/04 03:52:40;;;;;;;12.30;9.30;;;2.40;1.00;;;;;;5031644;28;20807;-61
2022/04/04 03:55:09;;;;;;;11.25;8.60;;;2.40;1.00;;;;;;5031896;28;20824;-61
2022/04/04 03:57:37;;;;;;;11.60;9.05;;;2.40;1.00;;;;;;5031041;28;20469;-60
2022/04/04 04:00:06;;;;;;;10.02;8.07;;;2.40;99.90;;;;;;5031918;28;20423;-61
2022/04/04 04:02:33;;;;;;;11.43;8.07;;;2.30;99.90;;;;;;5031601;28;20502;-55
2022/04/04 04:04:59;;;;;;;12.38;8.98;;;2.20;99.90;;;;;;5031742;28;20492;-59
2022/04/04 04:07:26;;;;;;;12.23;8.60;;;2.20;1.00;;;;;;5031260;28;20453;-60
2022/04/04 04:09:53;;;;;;;12.00;8.18;;;2.20;99.90;;;;;;5031396;28;20766;-60
2022/04/04 04:12:21;;;;;;;11.15;7.85;;;2.20;99.90;;;;;;5031673;28;20457;-60
2022/04/04 04:14:49;;;;;;;11.67;7.90;;;2.40;99.90;;;;;;5031433;28;20502;-59
2022/04/04 04:17:16;;;;;;;11.88;7.93;;;2.30;99.90;;;;;;5031516;28;20423;-60
2022/04/04 04:22:27;;;;;;;12.55;8.65;;;2.30;1.00;;;;;;5031352;28;20470;-60
2022/04/04 04:24:54;;;;;;;14.25;8.75;;;2.20;19.40;;;;;;5031389;28;20499;-59
2022/04/04 04:27:21;;;;;;;11.98;8.75;;;2.20;28.70;;;;;;5031244;28;20426;-59
2022/04/04 04:29:49;;;;;;;13.45;9.07;;;2.20;99.90;;;;;;5031147;28;20796;-57
2022/04/04 04:32:15;;;;;;;12.73;9.43;;;2.20;1.00;;;;;;5031116;28;20435;-59
2022/04/04 04:34:46;;;;;;;12.73;8.63;;;2.20;1.00;;;;;;5031103;28;20894;-61
2022/04/04 04:37:13;;;;;;;12.80;9.23;;;2.20;1.00;;;;;;5030662;28;20419;-58
2022/04/04 04:39:39;;;;;;;13.77;9.90;;;2.30;1.00;;;;;;5031398;28;20494;-60
2022/04/04 04:42:06;;;;;;;12.88;9.40;;;2.20;1.00;;;;;;5030911;28;20913;-60
2022/04/04 04:44:33;;;;;;;14.43;10.15;;;2.20;1.00;;;;;;5031077;28;20419;-59
2022/04/04 04:47:01;;;;;;;13.95;9.88;;;2.20;1.00;;;;;;5030485;28;20415;-57
2022/04/04 04:49:28;;;;;;;14.27;10.43;;;2.20;1.00;;;;;;5030859;28;20465;-59
2022/04/04 04:51:56;;;;;;;13.27;9.65;;;2.20;1.00;;;;;;5030630;28;20511;-59
2022/04/04 04:54:22;;;;;;;14.32;10.88;;;2.20;1.00;;;;;;5031121;28;20473;-61
2022/04/04 04:56:49;;;;;;;15.65;10.50;;;2.10;1.00;;;;;;5031300;28;20415;-61
2022/04/04 04:59:16;;;;;;;14.48;11.15;;;2.10;1.00;;;;;;5031068;28;20415;-61
2022/04/04 05:01:43;;;;;;;15.35;10.77;;;2.00;1.00;;;;;;5031275;28;20896;-61
2022/04/04 05:04:11;;;;;;;16.45;11.68;;;2.00;1.00;;;;;;5030580;28;20415;-61
2022/04/04 05:06:37;;;;;;;15.38;11.65;;;1.90;86.50;;;;;;5030407;28;20414;-61
2022/04/04 05:09:04;;;;;;;16.00;10.88;;;2.00;87.40;;;;;;5030899;28;20826;-61
2022/04/04 05:11:31;;;;;;;14.48;10.77;;;2.00;99.90;;;;;;5030984;28;20474;-61
2022/04/04 05:13:58;;;;;;;15.25;11.32;;;2.00;40.70;;;;;;5030550;28;20438;-61
2022/04/04 05:16:28;;;;;;;15.73;11.43;;;2.00;1.00;;;;;;5030296;28;20421;-61
2022/04/04 05:18:55;;;;;;;15.82;11.00;;;2.10;1.00;;;;;;5030743;28;20419;-61
2022/04/04 05:21:23;;;;;;;16.35;10.48;;;2.00;1.00;;;;;;5030599;28;20510;-60
2022/04/04 05:23:50;;;;;;;15.20;10.25;;;2.10;1.00;;;;;;5030664;28;21020;-61
2022/04/04 05:26:17;;;;;;;16.10;11.43;;;2.10;1.00;;;;;;5030238;28;20418;-61
2022/04/04 05:28:43;;;;;;;16.10;10.48;;;2.20;99.90;;;;;;5030575;28;20425;-61
2022/04/04 05:31:10;;;;;;;15.45;11.02;;;2.20;99.90;;;;;;5030040;28;20469;-61
2022/04/04 05:33:37;;;;;;;15.90;10.82;;;2.20;99.90;;;;;;5030969;28;20411;-60
2022/04/04 05:36:05;;;;;;;13.15;9.85;;;2.20;99.90;;;;;;5030233;28;20793;-61
2022/04/04 05:38:33;;;;;;;16.15;10.80;;;2.20;99.90;;;;;;5030304;28;20818;-61
2022/04/04 05:41:00;;;;;;;15.30;9.88;;;2.30;99.90;;;;;;5030322;28;20419;-60
2022/04/04 05:43:27;;;;;;;15.43;10.80;;;2.40;99.90;;;;;;5030603;28;20405;-59
2022/04/04 05:45:54;;;;;;;14.18;9.98;;;2.40;99.90;;;;;;5030493;28;20495;-60
2022/04/04 05:48:23;;;;;;;16.35;10.75;;;2.40;99.90;;;;;;5030532;28;20419;-60
2022/04/04 05:50:50;;;;;;;15.10;10.05;;;2.60;18.50;;;;;;5030257;28;20430;-60
2022/04/04 05:53:17;;;;;;;16.17;10.10;;;2.60;1.00;;;;;;5030473;28;20465;-58
2022/04/04 05:55:44;;;;;;;16.25;10.25;;;2.60;1.00;;;;;;5030249;28;20885;-60
2022/04/04 05:58:12;;;;;;;13.63;9.60;;;2.60;1.00;;;;;;5029746;28;20473;-59
2022/04/04 06:00:38;;;;;;;15.32;9.82;;;2.60;1.00;;;;;;5030036;28;20419;-59
2022/04/04 06:03:06;;;;;;;14.35;10.07;;;2.70;1.00;;;;;;5030322;28;20414;-58
2022/04/04 06:05:35;;;;;;;14.95;10.15;;;2.70;1.00;;;;;;5030046;28;20959;-59
2022/04/04 06:08:01;;;;;;;14.05;9.75;;;2.70;1.00;;;;;;5029984;28;20855;-59
2022/04/04 06:10:28;;;;;;;13.52;10.05;;;2.80;99.90;;;;;;5030146;28;20492;-57
2022/04/04 06:12:56;;;;;;;14.60;9.15;;;2.80;1.00;;;;;;5030171;28;20898;-59
2022/04/04 06:15:23;;;;;;;14.82;9.63;;;2.90;1.00;;;;;;5029927;28;20429;-59
2022/04/04 06:17:50;;;;;;;15.15;9.80;;;2.90;99.90;;;;;;5029937;28;20418;-56
2022/04/04 06:20:16;;;;;;;13.32;9.95;;;2.90;99.90;;;;;;5033825;28;20411;-59
2022/04/04 06:22:43;;;;;;;13.73;9.00;;;3.00;99.90;;;;;;5033546;28;20419;-59
2022/04/04 06:25:12;;;;;;;15.52;8.68;;;3.00;99.90;;;;;;5033711;28;20417;-61
2022/04/04 06:27:39;;;;;;;14.52;9.00;;;3.20;99.90;;;;;;5032874;28;20442;-61
2022/04/04 06:30:09;;;;;;;13.18;8.85;;;3.30;99.90;;;;;;5033818;28;20462;-60
2022/04/04 06:32:36;;;;;;;12.93;8.57;;;3.30;99.90;;;;;;5033326;28;20430;-61
2022/04/04 06:35:04;;;;;;;12.18;9.00;;;3.40;99.90;;;;;;5033480;28;20830;-61
2022/04/04 06:37:31;;;;;;;11.07;8.25;;;3.50;99.90;;;;;;5033398;28;20474;-59
2022/04/04 06:39:58;;;;;;;9.93;7.97;;;3.40;99.90;;;;;;5033260;28;20429;-59
2022/04/04 06:42:24;;;;;;;13.70;8.43;;;3.50;99.90;;;;;;5033415;28;20411;-59
2022/04/04 06:44:54;;;;;;;13.75;8.95;;;3.40;82.50;;;;;;5033188;28;20808;-58
2022/04/04 06:47:22;;;;;;;11.50;7.68;;;3.50;99.90;;;;;;5033219;28;20419;-59
2022/04/04 06:49:50;;;;;;;9.77;7.50;;;3.40;27.40;;;;;;5032978;28;20532;-59
2022/04/04 06:52:17;;;;;;;10.90;8.02;;;3.50;90.30;;;;;;5032882;28;20505;-59
2022/04/04 06:54:43;;;;;;;11.10;8.43;;;3.60;48.30;;;;;;5033181;28;20419;-59
2022/04/04 06:57:10;;;;;;;10.60;8.10;;;3.80;8.10;;;;;;5032134;28;20490;-60
2022/04/04 06:59:37;;;;;;;11.10;8.65;;;3.80;1.00;;;;;;5033221;28;20415;-58
2022/04/04 07:02:04;;;;;;;11.25;8.05;;;3.90;1.00;;;;;;5032921;28;20415;-60
2022/04/04 07:04:32;;;;;;;11.18;8.27;;;4.00;1.00;;;;;;5032974;28;20933;-58
2022/04/04 07:06:59;;;;;;;10.25;7.90;;;4.10;1.00;;;;;;5032173;28;20418;-60
2022/04/04 07:09:25;;;;;;;9.73;7.40;;;4.30;1.00;;;;;;5032776;28;20422;-60
2022/04/04 07:11:52;;;;;;;14.23;8.65;;;4.30;1.00;;;;;;5032672;28;20427;-60
2022/04/04 07:14:19;;;;;;;12.88;8.32;;;4.30;1.00;;;;;;5032727;28;20431;-60
2022/04/04 07:16:45;;;;;;;9.85;7.40;;;4.50;1.00;;;;;;5032379;28;20482;-60
2022/04/04 07:19:15;;;;;;;12.60;9.15;;;4.60;1.00;;;;;;5032485;28;20901;-59
2022/04/04 07:21:44;;;;;;;13.40;9.52;;;4.60;1.00;;;;;;5032380;28;20419;-60
2022/04/04 07:24:10;;;;;;;12.30;8.98;;;4.60;1.00;;;;;;5032300;28;20407;-58
2022/04/04 07:26:37;;;;;;;10.82;8.32;;;4.60;1.00;;;;;;5032251;28;20411;-59
2022/04/04 07:29:04;;;;;;;12.53;8.57;;;4.70;1.00;;;;;;5031681;28;20563;-60
2022/04/04 07:31:30;;;;;;;12.13;8.50;;;4.70;1.00;;;;;;5032455;28;20410;-60
2022/04/04 07:33:57;;;;;;;12.75;8.15;;;4.80;1.00;;;;;;5031909;28;20501;-57
2022/04/04 07:36:23;;;;;;;12.82;8.13;;;4.70;1.00;;;;;;5032129;28;20418;-56
2022/04/04 07:38:52;;;;;;;11.68;8.02;;;4.70;1.00;;;;;;5032357;28;20472;-60
2022/04/04 07:41:19;;;;;;;10.55;8.05;;;4.70;1.00;;;;;;5031926;28;20419;-60
2022/04/04 07:43:45;;;;;;;10.32;6.85;;;4.70;1.00;;;;;;5032139;28;20490;-60
2022/04/04 07:46:12;;;;;;;10.10;7.93;;;4.80;1.00;;;;;;5031456;28;20430;-60
2022/04/04 07:48:40;;;;;;;11.05;7.80;;;4.90;1.00;;;;;;5031777;28;20490;-60
2022/04/04 07:51:07;;;;;;;12.32;8.00;;;5.10;1.00;;;;;;5031949;28;20508;-60
2022/04/04 07:53:34;;;;;;;11.40;7.05;;;5.20;1.00;;;;;;5032156;28;20784;-60
2022/04/04 07:56:02;;;;;;;9.68;5.70;;;5.40;1.00;;;;;;5031575;28;20636;-60
2022/04/04 07:58:28;;;;;;;9.73;7.35;;;5.30;99.90;;;;;;5031120;28;20454;-60
2022/04/04 08:00:55;;;;;;;11.57;7.25;;;5.50;99.90;;;;;;5031632;28;20966;-61
2022/04/04 08:03:23;;;;;;;9.30;7.00;;;5.50;99.90;;;;;;5031713;28;20936;-61
2022/04/04 08:05:50;;;;;;;9.25;7.35;;;5.60;99.90;;;;;;5031668;28;20877;-61
2022/04/04 08:08:17;;;;;;;10.35;7.60;;;5.70;99.90;;;;;;5031592;28;20748;-58
2022/04/04 08:10:44;;;;;;;12.77;7.07;;;5.60;99.90;;;;;;5031765;28;20954;-61
2022/04/04 08:13:12;;;;;;;10.98;7.30;;;5.60;99.90;;;;;;5031334;28;20909;-60
2022/04/04 08:15:38;;;;;;;11.05;7.30;;;5.60;99.90;;;;;;5031707;28;20418;-59
2022/04/04 08:18:06;;;;;;;10.48;7.20;;;5.60;99.90;;;;;;5011228;28;20926;-61
2022/04/04 08:20:34;;;;;;;9.13;7.03;;;5.70;99.90;;;;;;5026426;28;20419;-60
2022/04/04 08:23:00;;;;;;;9.10;6.55;;;5.80;99.90;;;;;;5031701;28;20415;-61
2022/04/04 08:25:27;;;;;;;10.10;6.72;;;5.90;99.90;;;;;;5031282;28;20422;-62
2022/04/04 08:27:54;;;;;;;10.83;7.37;;;6.00;99.90;;;;;;5030260;28;20836;-60
2022/04/04 08:30:22;;;;;;;8.13;5.80;;;6.10;99.90;;;;;;5030694;28;20418;-59
2022/04/04 08:32:49;;;;;;;10.07;6.65;;;6.30;99.90;;;;;;5030734;28;20434;-62
2022/04/04 08:35:17;;;;;;;8.27;6.15;;;6.40;99.90;;;;;;5031028;28;20926;-63
2022/04/04 08:37:46;;;;;;;7.05;5.90;;;6.30;99.90;;;;;;5030067;28;20473;-62
2022/04/04 08:40:14;;;;;;;9.05;6.72;;;6.20;99.90;;;;;;5030327;28;20415;-62
2022/04/04 08:42:41;;;;;;;9.07;6.90;;;6.30;99.90;;;;;;5030086;28;20501;-62
2022/04/04 08:45:09;;;;;;;10.15;6.57;;;6.60;99.90;;;;;;5030833;28;20427;-60
2022/04/04 08:47:38;;;;;;;7.82;5.32;;;6.60;99.90;;;;;;5029977;28;20472;-62
2022/04/04 08:50:05;;;;;;;7.70;5.78;;;6.70;99.90;;;;;;5030649;28;20411;-61
2022/04/04 08:52:32;;;;;;;8.70;5.80;;;6.50;99.90;;;;;;5030590;28;20461;-62
2022/04/04 08:54:59;;;;;;;7.38;5.60;;;6.50;99.90;;;;;;5030172;28;20421;-62
2022/04/04 08:57:25;;;;;;;9.80;6.45;;;6.30;99.90;;;;;;5029685;28;20829;-63
2022/04/04 08:59:52;;;;;;;8.82;6.43;;;6.30;99.90;;;;;;5030432;28;20415;-60
2022/04/04 09:02:20;;;;;;;10.23;5.50;;;6.40;99.90;;;;;;5029829;28;21291;-60
2022/04/04 09:04:53;;;;;;;7.60;5.95;;;6.20;99.90;;;;;;5030189;28;20423;-61
2022/04/04 09:07:21;;;;;;;8.18;6.47;;;6.20;99.90;;;;;;5029150;28;20426;-61
2022/04/04 09:09:50;;;;;;;12.05;7.03;;;6.20;99.90;;;;;;5030182;28;20798;-60
2022/04/04 09:12:19;;;;;;;7.43;6.43;;;6.30;99.90;;;;;;5030385;28;20415;-61
2022/04/04 09:14:48;;;;;;;8.35;6.57;;;6.20;99.90;;;;;;5030303;28;20431;-61
2022/04/04 09:17:16;;;;;;;11.00;6.72;;;6.20;99.90;;;;;;5029601;28;20422;-61
2022/04/04 09:19:44;;;;;;;8.93;6.80;;;6.20;99.90;;;;;;5030205;28;20423;-61
2022/04/04 09:22:13;;;;;;;11.23;6.63;;;6.20;99.90;;;;;;5029893;28;20415;-58
2022/04/04 09:24:43;;;;;;;;;;;6.10;99.90;;;;;;5031895;28;20560;-61
2022/04/04 09:27:11;;;;;;;;;;;6.10;99.90;;;;;;5031229;28;19925;-61
2022/04/04 09:29:40;;;;;;;;;;;6.10;99.90;;;;;;5032070;28;19921;-63
2022/04/04 09:32:11;;;;;;;;;;;6.10;99.90;;;;;;5031777;28;19920;-63
2022/04/04 09:34:50;;;;;;;;;;;5.90;99.90;;;;;;5031496;28;19991;-62
2022/04/04 09:37:18;;;;;;;;;;;5.80;99.90;;;;;;5031431;28;20327;-61
2022/04/04 09:39:44;;;;;;;10.93;6.88;;;5.80;99.90;;;;;;5029939;28;20454;-62
2022/04/04 09:42:15;;;;;;;9.57;7.37;;;5.80;99.90;;;;;;5029348;28;20511;-62
2022/04/04 09:44:42;;;;;;;7.17;5.37;;;5.90;1.00;;;;;;5031322;28;20211;-60
2022/04/04 09:47:08;;;;;;;;;;;5.90;1.00;;;;;;5030221;28;20049;-61
2022/04/04 09:49:39;;;;;;;;;;;5.70;1.00;;;;;;5031702;28;20008;-61
2022/04/04 09:52:05;;;;;;;;;;;5.60;1.00;;;;;;5032065;28;19921;-58
2022/04/04 09:54:42;;;;;;;;;;;5.60;1.00;;;;;;5035562;28;19929;-60
2022/04/04 09:57:12;;;;;;;;;;;5.60;1.00;;;;;;5034519;28;19925;-60
2022/04/04 09:59:39;;;;;;;;;;;5.40;1.00;;;;;;5035321;28;19921;-61
2022/04/04 10:02:06;;;;;;;;;;;5.40;30.30;;;;;;5035369;28;19925;-61
2022/04/04 10:04:32;;;;;;;;;;;5.50;99.90;;;;;;5035064;28;20380;-59
2022/04/04 10:07:02;;;;;;;;;;;5.60;99.90;;;;;;5034697;28;19924;-61
2022/04/04 10:09:29;;;;;;;;;;;5.70;99.90;;;;;;5035102;28;19925;-61
2022/04/04 10:11:58;;;;;;;;;;;5.70;42.50;;;;;;5035303;28;19921;-62
2022/04/04 10:14:24;;;;;;;;;;;5.80;9.60;;;;;;5034667;28;19925;-56
2022/04/04 10:16:51;;;;;;;;;;;6.00;1.00;;;;;;5034733;28;19925;-59
2022/04/04 10:19:18;;;;;;;;;;;6.00;1.00;;;;;;5035064;28;20073;-57
2022/04/04 10:21:46;;;;;;;;;;;6.00;1.00;;;;;;5034861;28;19920;-58
2022/04/04 10:24:13;;;;;;;;;;;6.00;1.00;;;;;;5035113;28;19925;-62
2022/04/04 10:26:40;;;;;;;;;;;6.00;1.00;;;;;;5034152;28;19921;-60
2022/04/04 10:29:11;;;;;;;;;;;6.10;1.00;;;;;;5034519;28;19921;-62
2022/04/04 10:31:45;;;;;;;;;;;6.00;1.00;;;;;;5035189;28;20008;-61
2022/04/04 10:34:13;;;;;;;;;;;6.00;1.00;;;;;;5034816;28;20338;-62
2022/04/04 10:36:53;;;;;;;;;;;6.10;49.00;;;;;;5034697;28;20012;-62
2022/04/04 10:39:32;;;;;;;8.87;5.37;;;6.00;99.90;;;;;;5033821;28;20211;-62
2022/04/04 10:41:59;;;;;;;12.23;8.13;;;6.00;99.90;;;;;;5033194;28;20422;-62
2022/04/04 10:44:49;;;;;;;12.48;8.85;;;5.80;99.90;;;;;;5032120;28;20415;-62
2022/04/04 10:47:21;;;;;;;11.77;9.40;;;5.80;1.00;;;;;;5032249;28;20468;-60
2022/04/04 10:49:48;;;;;;;11.67;9.43;;;5.70;1.00;;;;;;5032978;28;20547;-60
2022/04/04 10:52:17;;;;;;;11.55;8.48;;;5.70;1.00;;;;;;5034044;28;20938;-59
2022/04/04 10:54:44;;;;;;;11.00;8.52;;;5.70;1.00;;;;;;5032404;28;20427;-61
2022/04/04 10:57:16;;;;;;;12.48;10.10;;;5.70;32.70;;;;;;5032217;28;20419;-59
2022/04/04 10:59:46;;;;;;;14.77;10.07;;;5.70;99.90;;;;;;5033407;28;20933;-60
2022/04/04 11:02:18;;;;;;;12.93;10.97;;;5.40;1.00;;;;;;5032530;28;20411;-61
2022/04/04 11:07:41;;;;;;;13.82;11.48;;;5.20;1.00;;;;;;5031517;28;20405;-62
2022/04/04 11:10:09;;;;;;;13.88;11.68;;;5.20;1.00;;;;;;5032504;28;20778;-59
2022/04/04 11:12:57;;;;;;;17.75;12.23;;;5.20;1.00;;;;;;5032167;28;20477;-57
2022/04/04 11:15:43;;;;;;;15.98;12.80;;;5.10;1.00;;;;;;5032696;28;20479;-59
2022/04/04 11:18:12;;;;;;;14.95;13.25;;;5.00;99.90;;;;;;5031978;28;20948;-58
2022/04/04 11:20:49;;;;;;;17.95;14.60;;;5.00;99.90;;;;;;5032190;28;20893;-58
2022/04/04 11:23:15;;;;;;;18.13;14.10;;;4.90;1.00;;;;;;5031985;28;20425;-58
2022/04/04 11:25:51;;;;;;;19.38;14.52;;;4.70;1.00;;;;;;5032211;28;20415;-57
2022/04/04 11:28:20;;;;;;;17.35;13.40;;;4.80;99.90;;;;;;5032194;28;20414;-60
2022/04/04 11:30:47;;;;;;;19.60;14.82;;;4.80;99.90;;;;;;5031949;28;20909;-60
2022/04/04 11:33:22;;;;;;;17.77;14.07;;;4.70;99.90;;;;;;5032180;28;20431;-60
2022/04/04 11:35:50;;;;;;;20.33;15.03;;;4.70;99.90;;;;;;5031371;28;20971;-61
2022/04/04 11:38:19;;;;;;;18.73;14.05;;;4.50;1.00;;;;;;5031531;28;20419;-61
2022/04/04 11:40:52;;;;;;;17.05;13.82;;;4.50;1.00;;;;;;5031530;28;20873;-61
2022/04/04 11:43:21;;;;;;;18.58;13.40;;;4.40;1.00;;;;;;5031773;28;20473;-61
2022/04/04 11:45:49;;;;;;;21.25;14.75;;;4.30;1.00;;;;;;5031652;28;20422;-61
2022/04/04 11:48:24;;;;;;;21.42;15.32;;;4.30;1.00;;;;;;5030881;28;20494;-60
2022/04/04 11:50:56;;;;;;;21.42;15.10;;;4.30;1.00;;;;;;5031761;28;20821;-53
2022/04/04 11:53:25;;;;;;;18.27;13.77;;;4.20;1.00;;;;;;5032059;28;20552;-60
2022/04/04 11:56:00;;;;;;;20.55;14.25;;;4.20;1.00;;;;;;5031694;28;20423;-58
2022/04/04 11:58:27;;;;;;;21.83;16.10;;;4.30;1.00;;;;;;5031186;28;20418;-59
2022/04/04 12:01:00;;;;;;;19.90;15.80;;;4.20;1.00;;;;;;5031789;28;20427;-59
2022/04/04 12:03:29;;;;;;;20.83;15.18;;;4.30;11.20;;;;;;5031778;28;20415;-59
2022/04/04 12:05:57;;;;;;;20.48;15.48;;;4.30;42.00;;;;;;5030729;28;20758;-60
2022/04/04 12:08:25;;;;;;;19.50;15.45;;;4.30;63.00;;;;;;5031079;28;20497;-59
2022/04/04 12:10:52;;;;;;;19.90;15.95;;;4.40;84.50;;;;;;5031093;28;20455;-60
2022/04/04 12:13:21;;;;;;;20.73;16.70;;;4.50;97.50;;;;;;5031494;28;20940;-60
2022/04/04 12:15:49;;;;;;;19.65;15.65;;;4.50;99.90;;;;;;5030281;28;20422;-60
2022/04/04 12:18:21;;;;;;;22.92;16.70;;;4.30;80.00;;;;;;5030651;28;20458;-59
2022/04/04 12:20:51;;;;;;;22.65;15.07;;;4.30;97.00;;;;;;5031245;28;20457;-61
2022/04/04 12:26:06;;;;;;;16.77;13.23;;;4.40;99.60;;;;;;5031056;28;20394;-60
2022/04/04 12:28:35;;;;;;;17.30;14.27;;;4.40;81.70;;;;;;5031021;28;20426;-59
2022/04/04 12:31:11;;;;;;;15.85;14.15;;;4.30;75.60;;;;;;5031096;28;20423;-57
2022/04/04 12:33:37;;;;;;;19.03;14.47;;;4.30;90.50;;;;;;5030788;28;20509;-58
2022/04/04 12:36:06;;;;;;;17.25;13.73;;;4.30;96.60;;;;;;5030446;28;20419;-59
2022/04/04 12:38:35;;;;;;;18.73;13.73;;;4.20;99.80;;;;;;5031144;28;20426;-59
2022/04/04 12:41:04;;;;;;;16.50;14.32;;;4.20;99.90;;;;;;5030726;28;20481;-59
2022/04/04 12:43:31;;;;;;;16.67;13.50;;;4.20;95.10;;;;;;5030948;28;20502;-59
2022/04/04 12:45:57;;;;;;;17.23;13.47;;;4.10;82.80;;;;;;5030027;28;20558;-61
2022/04/04 12:48:33;;;;;;;18.52;14.60;;;4.10;94.80;;;;;;5030644;28;20419;-61
2022/04/04 12:50:59;;;;;;;18.08;14.52;;;4.10;98.10;;;;;;5030737;28;20419;-61
2022/04/04 12:53:28;;;;;;;18.25;14.27;;;4.00;97.70;;;;;;5030860;28;20414;-60
2022/04/04 12:56:06;;;;;;;19.33;15.00;;;4.10;99.90;;;;;;5030362;28;20426;-61
2022/04/04 12:58:34;;;;;;;18.90;15.25;;;4.20;99.90;;;;;;5030685;28;20782;-60
2022/04/04 13:01:11;;;;;;;18.03;14.07;;;4.20;99.90;;;;;;5030610;28;20942;-60
2022/04/04 13:03:48;;;;;;;17.23;14.63;;;4.10;99.90;;;;;;5030806;28;20498;-61
2022/04/04 13:06:16;;;;;;;17.92;13.75;;;4.10;99.90;;;;;;5030241;28;20490;-62
2022/04/04 13:08:54;;;;;;;17.27;13.75;;;4.10;99.90;;;;;;5030240;28;20423;-62
2022/04/04 13:11:21;;;;;;;17.63;14.65;;;4.10;99.90;;;;;;5030057;28;20454;-60